<?xml version="1.0" encoding="UTF-8" standalone="no" ?>
<gpx xmlns="http://www.topografix.com/GPX/1/1" xmlns:xsi="http://www.w3.org/2001/XMLSchema-instance" xsi:schemaLocation="http://www.topografix.com/GPX/1/1 http://www.topografix.com/GPX/1/1/gpx.xsd" version="1.1" creator="VisuGPX - https://www.visugpx.com">
  <metadata>
    <name>Lautrec N2</name>
    <desc><![CDATA[Boucle Lautrec 19km par Saint Cyr-bas,  l'Auroulié et retour par voie verte]]></desc>
  </metadata>
  <trk>
    <name><![CDATA[13084843-Lautrec N2]]></name>
    <extensions>
      <line xmlns="http://www.topografix.com/GPX/gpx_style/0/2">
        <color>0000FF</color>
        <width>4</width>
      </line>
    </extensions>
    <trkseg>
      <trkpt lat="43.70348" lon="2.13316">
        <ele>243</ele>
        <time>2021-10-31T18:06:29Z</time>
      </trkpt>
      <trkpt lat="43.7035" lon="2.13217">
        <ele>236</ele>
        <time>2021-10-31T18:08:05Z</time>
      </trkpt>
      <trkpt lat="43.70329" lon="2.13071">
        <ele>230</ele>
        <time>2021-10-31T18:10:28Z</time>
      </trkpt>
      <trkpt lat="43.70316" lon="2.12991">
        <ele>233</ele>
        <time>2021-10-31T18:11:47Z</time>
      </trkpt>
      <trkpt lat="43.70306" lon="2.12957">
        <ele>235</ele>
        <time>2021-10-31T18:12:23Z</time>
      </trkpt>
      <trkpt lat="43.703" lon="2.12817">
        <ele>247</ele>
        <time>2021-10-31T18:14:38Z</time>
      </trkpt>
      <trkpt lat="43.70304" lon="2.12731">
        <ele>253</ele>
        <time>2021-10-31T18:16:01Z</time>
      </trkpt>
      <trkpt lat="43.70294" lon="2.12697">
        <ele>253</ele>
        <time>2021-10-31T18:16:37Z</time>
      </trkpt>
      <trkpt lat="43.70312" lon="2.12628">
        <ele>251</ele>
        <time>2021-10-31T18:17:47Z</time>
      </trkpt>
      <trkpt lat="43.70374" lon="2.12449">
        <ele>248</ele>
        <time>2021-10-31T18:20:59Z</time>
      </trkpt>
      <trkpt lat="43.70412" lon="2.12297">
        <ele>242</ele>
        <time>2021-10-31T18:23:34Z</time>
      </trkpt>
      <trkpt lat="43.70434" lon="2.12219">
        <ele>241</ele>
        <time>2021-10-31T18:24:55Z</time>
      </trkpt>
      <trkpt lat="43.70488" lon="2.12185">
        <ele>243</ele>
        <time>2021-10-31T18:26:14Z</time>
      </trkpt>
      <trkpt lat="43.70477" lon="2.12132">
        <ele>242</ele>
        <time>2021-10-31T18:27:07Z</time>
      </trkpt>
      <trkpt lat="43.70524" lon="2.12036">
        <ele>248</ele>
        <time>2021-10-31T18:28:59Z</time>
      </trkpt>
      <trkpt lat="43.70564" lon="2.11918">
        <ele>256</ele>
        <time>2021-10-31T18:31:05Z</time>
      </trkpt>
      <trkpt lat="43.70613" lon="2.11847">
        <ele>261</ele>
        <time>2021-10-31T18:32:39Z</time>
      </trkpt>
      <trkpt lat="43.70622" lon="2.11751">
        <ele>269</ele>
        <time>2021-10-31T18:34:13Z</time>
      </trkpt>
      <trkpt lat="43.7062" lon="2.11621">
        <ele>286</ele>
        <time>2021-10-31T18:36:18Z</time>
      </trkpt>
      <trkpt lat="43.70575" lon="2.11574">
        <ele>292</ele>
        <time>2021-10-31T18:37:33Z</time>
      </trkpt>
      <trkpt lat="43.70516" lon="2.11574">
        <ele>290</ele>
        <time>2021-10-31T18:38:52Z</time>
      </trkpt>
      <trkpt lat="43.70487" lon="2.11637">
        <ele>287</ele>
        <time>2021-10-31T18:40:04Z</time>
      </trkpt>
      <trkpt lat="43.70454" lon="2.11661">
        <ele>291</ele>
        <time>2021-10-31T18:40:54Z</time>
      </trkpt>
      <trkpt lat="43.70418" lon="2.11658">
        <ele>299</ele>
        <time>2021-10-31T18:41:42Z</time>
      </trkpt>
      <trkpt lat="43.70422" lon="2.11584">
        <ele>305</ele>
        <time>2021-10-31T18:42:54Z</time>
      </trkpt>
      <trkpt lat="43.70424" lon="2.11513">
        <ele>310</ele>
        <time>2021-10-31T18:44:02Z</time>
      </trkpt>
      <trkpt lat="43.70466" lon="2.1141">
        <ele>321</ele>
        <time>2021-10-31T18:45:56Z</time>
      </trkpt>
      <trkpt lat="43.70435" lon="2.11308">
        <ele>327</ele>
        <time>2021-10-31T18:47:43Z</time>
      </trkpt>
      <trkpt lat="43.70509" lon="2.112">
        <ele>325</ele>
        <time>2021-10-31T18:50:07Z</time>
      </trkpt>
      <trkpt lat="43.70606" lon="2.11332">
        <ele>330</ele>
        <time>2021-10-31T18:53:08Z</time>
      </trkpt>
      <trkpt lat="43.70637" lon="2.11385">
        <ele>326</ele>
        <time>2021-10-31T18:54:14Z</time>
      </trkpt>
      <trkpt lat="43.70691" lon="2.11397">
        <ele>328</ele>
        <time>2021-10-31T18:55:27Z</time>
      </trkpt>
      <trkpt lat="43.70747" lon="2.11378">
        <ele>327</ele>
        <time>2021-10-31T18:56:44Z</time>
      </trkpt>
      <trkpt lat="43.7085" lon="2.11294">
        <ele>330</ele>
        <time>2021-10-31T18:59:23Z</time>
      </trkpt>
      <trkpt lat="43.70877" lon="2.11226">
        <ele>328</ele>
        <time>2021-10-31T19:00:38Z</time>
      </trkpt>
      <trkpt lat="43.7092" lon="2.11158">
        <ele>324</ele>
        <time>2021-10-31T19:02:05Z</time>
      </trkpt>
      <trkpt lat="43.70951" lon="2.11114">
        <ele>319</ele>
        <time>2021-10-31T19:03:05Z</time>
      </trkpt>
      <trkpt lat="43.71023" lon="2.1108">
        <ele>315</ele>
        <time>2021-10-31T19:04:46Z</time>
      </trkpt>
      <trkpt lat="43.71071" lon="2.11442">
        <ele>325</ele>
        <time>2021-10-31T19:10:41Z</time>
      </trkpt>
      <trkpt lat="43.71152" lon="2.11513">
        <ele>336</ele>
        <time>2021-10-31T19:12:49Z</time>
      </trkpt>
      <trkpt lat="43.71163" lon="2.11609">
        <ele>325</ele>
        <time>2021-10-31T19:14:23Z</time>
      </trkpt>
      <trkpt lat="43.71289" lon="2.11655">
        <ele>317</ele>
        <time>2021-10-31T19:17:17Z</time>
      </trkpt>
      <trkpt lat="43.71339" lon="2.11704">
        <ele>319</ele>
        <time>2021-10-31T19:18:39Z</time>
      </trkpt>
      <trkpt lat="43.71267" lon="2.11888">
        <ele>318</ele>
        <time>2021-10-31T19:22:00Z</time>
      </trkpt>
      <trkpt lat="43.7123" lon="2.12021">
        <ele>318</ele>
        <time>2021-10-31T19:24:18Z</time>
      </trkpt>
      <trkpt lat="43.71116" lon="2.12505">
        <ele>334</ele>
        <time>2021-10-31T19:32:29Z</time>
      </trkpt>
      <trkpt lat="43.71108" lon="2.12576">
        <ele>341</ele>
        <time>2021-10-31T19:33:38Z</time>
      </trkpt>
      <trkpt lat="43.71191" lon="2.1261">
        <ele>343</ele>
        <time>2021-10-31T19:35:34Z</time>
      </trkpt>
      <trkpt lat="43.71247" lon="2.12569">
        <ele>339</ele>
        <time>2021-10-31T19:36:58Z</time>
      </trkpt>
      <trkpt lat="43.71283" lon="2.12546">
        <ele>335</ele>
        <time>2021-10-31T19:37:51Z</time>
      </trkpt>
      <trkpt lat="43.71373" lon="2.12606">
        <ele>335</ele>
        <time>2021-10-31T19:40:04Z</time>
      </trkpt>
      <trkpt lat="43.71427" lon="2.12665">
        <ele>327</ele>
        <time>2021-10-31T19:41:36Z</time>
      </trkpt>
      <trkpt lat="43.71471" lon="2.12838">
        <ele>317</ele>
        <time>2021-10-31T19:44:33Z</time>
      </trkpt>
      <trkpt lat="43.71533" lon="2.12927">
        <ele>315</ele>
        <time>2021-10-31T19:46:32Z</time>
      </trkpt>
      <trkpt lat="43.71598" lon="2.1296">
        <ele>310</ele>
        <time>2021-10-31T19:48:05Z</time>
      </trkpt>
      <trkpt lat="43.71643" lon="2.12994">
        <ele>308</ele>
        <time>2021-10-31T19:49:13Z</time>
      </trkpt>
      <trkpt lat="43.71676" lon="2.13031">
        <ele>308</ele>
        <time>2021-10-31T19:50:10Z</time>
      </trkpt>
      <trkpt lat="43.71686" lon="2.13077">
        <ele>309</ele>
        <time>2021-10-31T19:50:56Z</time>
      </trkpt>
      <trkpt lat="43.71567" lon="2.13141">
        <ele>313</ele>
        <time>2021-10-31T19:53:47Z</time>
      </trkpt>
      <trkpt lat="43.71491" lon="2.13206">
        <ele>316</ele>
        <time>2021-10-31T19:55:46Z</time>
      </trkpt>
      <trkpt lat="43.71425" lon="2.13238">
        <ele>321</ele>
        <time>2021-10-31T19:57:19Z</time>
      </trkpt>
      <trkpt lat="43.7138" lon="2.13278">
        <ele>324</ele>
        <time>2021-10-31T19:58:31Z</time>
      </trkpt>
      <trkpt lat="43.71324" lon="2.13362">
        <ele>330</ele>
        <time>2021-10-31T20:00:21Z</time>
      </trkpt>
      <trkpt lat="43.71269" lon="2.13427">
        <ele>334</ele>
        <time>2021-10-31T20:01:57Z</time>
      </trkpt>
      <trkpt lat="43.71217" lon="2.13455">
        <ele>336</ele>
        <time>2021-10-31T20:03:12Z</time>
      </trkpt>
      <trkpt lat="43.71169" lon="2.13486">
        <ele>336</ele>
        <time>2021-10-31T20:04:22Z</time>
      </trkpt>
      <trkpt lat="43.71145" lon="2.13527">
        <ele>335</ele>
        <time>2021-10-31T20:05:13Z</time>
      </trkpt>
      <trkpt lat="43.71116" lon="2.13607">
        <ele>336</ele>
        <time>2021-10-31T20:06:40Z</time>
      </trkpt>
      <trkpt lat="43.71089" lon="2.13629">
        <ele>333</ele>
        <time>2021-10-31T20:07:22Z</time>
      </trkpt>
      <trkpt lat="43.71066" lon="2.13657">
        <ele>334</ele>
        <time>2021-10-31T20:08:02Z</time>
      </trkpt>
      <trkpt lat="43.71033" lon="2.13673">
        <ele>334</ele>
        <time>2021-10-31T20:08:49Z</time>
      </trkpt>
      <trkpt lat="43.71024" lon="2.13735">
        <ele>333</ele>
        <time>2021-10-31T20:09:50Z</time>
      </trkpt>
      <trkpt lat="43.71048" lon="2.138">
        <ele>335</ele>
        <time>2021-10-31T20:11:00Z</time>
      </trkpt>
      <trkpt lat="43.71075" lon="2.1384">
        <ele>341</ele>
        <time>2021-10-31T20:11:53Z</time>
      </trkpt>
      <trkpt lat="43.71099" lon="2.13871">
        <ele>342</ele>
        <time>2021-10-31T20:12:37Z</time>
      </trkpt>
      <trkpt lat="43.71158" lon="2.13929">
        <ele>346</ele>
        <time>2021-10-31T20:14:14Z</time>
      </trkpt>
      <trkpt lat="43.71205" lon="2.13979">
        <ele>344</ele>
        <time>2021-10-31T20:15:33Z</time>
      </trkpt>
      <trkpt lat="43.71264" lon="2.14025">
        <ele>339</ele>
        <time>2021-10-31T20:17:03Z</time>
      </trkpt>
      <trkpt lat="43.71329" lon="2.14047">
        <ele>338</ele>
        <time>2021-10-31T20:18:32Z</time>
      </trkpt>
      <trkpt lat="43.71376" lon="2.14031">
        <ele>337</ele>
        <time>2021-10-31T20:19:37Z</time>
      </trkpt>
      <trkpt lat="43.71434" lon="2.14003">
        <ele>335</ele>
        <time>2021-10-31T20:20:59Z</time>
      </trkpt>
      <trkpt lat="43.71488" lon="2.13993">
        <ele>330</ele>
        <time>2021-10-31T20:22:12Z</time>
      </trkpt>
      <trkpt lat="43.71533" lon="2.14003">
        <ele>326</ele>
        <time>2021-10-31T20:23:13Z</time>
      </trkpt>
      <trkpt lat="43.71567" lon="2.14012">
        <ele>321</ele>
        <time>2021-10-31T20:23:59Z</time>
      </trkpt>
      <trkpt lat="43.71634" lon="2.1395">
        <ele>320</ele>
        <time>2021-10-31T20:25:46Z</time>
      </trkpt>
      <trkpt lat="43.7169" lon="2.13906">
        <ele>321</ele>
        <time>2021-10-31T20:27:12Z</time>
      </trkpt>
      <trkpt lat="43.7174" lon="2.13903">
        <ele>318</ele>
        <time>2021-10-31T20:28:19Z</time>
      </trkpt>
      <trkpt lat="43.71776" lon="2.13875">
        <ele>318</ele>
        <time>2021-10-31T20:29:14Z</time>
      </trkpt>
      <trkpt lat="43.71805" lon="2.13875">
        <ele>316</ele>
        <time>2021-10-31T20:29:53Z</time>
      </trkpt>
      <trkpt lat="43.71857" lon="2.1389">
        <ele>313</ele>
        <time>2021-10-31T20:31:04Z</time>
      </trkpt>
      <trkpt lat="43.71947" lon="2.13933">
        <ele>306</ele>
        <time>2021-10-31T20:33:11Z</time>
      </trkpt>
      <trkpt lat="43.7203" lon="2.13976">
        <ele>294</ele>
        <time>2021-10-31T20:35:09Z</time>
      </trkpt>
      <trkpt lat="43.72055" lon="2.13976">
        <ele>292</ele>
        <time>2021-10-31T20:35:42Z</time>
      </trkpt>
      <trkpt lat="43.72149" lon="2.14028">
        <ele>288</ele>
        <time>2021-10-31T20:37:58Z</time>
      </trkpt>
      <trkpt lat="43.72205" lon="2.14041">
        <ele>286</ele>
        <time>2021-10-31T20:39:13Z</time>
      </trkpt>
      <trkpt lat="43.72293" lon="2.1404">
        <ele>283</ele>
        <time>2021-10-31T20:41:11Z</time>
      </trkpt>
      <trkpt lat="43.7245" lon="2.14068">
        <ele>278</ele>
        <time>2021-10-31T20:44:42Z</time>
      </trkpt>
      <trkpt lat="43.72554" lon="2.14055">
        <ele>277</ele>
        <time>2021-10-31T20:47:01Z</time>
      </trkpt>
      <trkpt lat="43.72585" lon="2.14014">
        <ele>281</ele>
        <time>2021-10-31T20:47:59Z</time>
      </trkpt>
      <trkpt lat="43.72632" lon="2.13968">
        <ele>284</ele>
        <time>2021-10-31T20:49:15Z</time>
      </trkpt>
      <trkpt lat="43.72668" lon="2.13971">
        <ele>287</ele>
        <time>2021-10-31T20:50:03Z</time>
      </trkpt>
      <trkpt lat="43.72769" lon="2.13983">
        <ele>288</ele>
        <time>2021-10-31T20:52:19Z</time>
      </trkpt>
      <trkpt lat="43.72801" lon="2.14007">
        <ele>290</ele>
        <time>2021-10-31T20:53:07Z</time>
      </trkpt>
      <trkpt lat="43.72816" lon="2.14014">
        <ele>291</ele>
        <time>2021-10-31T20:53:28Z</time>
      </trkpt>
      <trkpt lat="43.72839" lon="2.13952">
        <ele>295</ele>
        <time>2021-10-31T20:54:36Z</time>
      </trkpt>
      <trkpt lat="43.72902" lon="2.13902">
        <ele>293</ele>
        <time>2021-10-31T20:56:13Z</time>
      </trkpt>
      <trkpt lat="43.7298" lon="2.13818">
        <ele>288</ele>
        <time>2021-10-31T20:58:24Z</time>
      </trkpt>
      <trkpt lat="43.72971" lon="2.13945">
        <ele>283</ele>
        <time>2021-10-31T21:00:28Z</time>
      </trkpt>
      <trkpt lat="43.7298" lon="2.13988">
        <ele>280</ele>
        <time>2021-10-31T21:01:11Z</time>
      </trkpt>
      <trkpt lat="43.73097" lon="2.13985">
        <ele>271</ele>
        <time>2021-10-31T21:03:47Z</time>
      </trkpt>
      <trkpt lat="43.73133" lon="2.13963">
        <ele>264</ele>
        <time>2021-10-31T21:04:39Z</time>
      </trkpt>
      <trkpt lat="43.73185" lon="2.14037">
        <ele>257</ele>
        <time>2021-10-31T21:06:19Z</time>
      </trkpt>
      <trkpt lat="43.73304" lon="2.14096">
        <ele>247</ele>
        <time>2021-10-31T21:09:08Z</time>
      </trkpt>
      <trkpt lat="43.73369" lon="2.14148">
        <ele>245</ele>
        <time>2021-10-31T21:10:48Z</time>
      </trkpt>
      <trkpt lat="43.73451" lon="2.14086">
        <ele>239</ele>
        <time>2021-10-31T21:12:52Z</time>
      </trkpt>
      <trkpt lat="43.7349" lon="2.1403">
        <ele>236</ele>
        <time>2021-10-31T21:14:07Z</time>
      </trkpt>
      <trkpt lat="43.73528" lon="2.13918">
        <ele>233</ele>
        <time>2021-10-31T21:16:07Z</time>
      </trkpt>
      <trkpt lat="43.73586" lon="2.13865">
        <ele>232</ele>
        <time>2021-10-31T21:17:40Z</time>
      </trkpt>
      <trkpt lat="43.73678" lon="2.13818">
        <ele>231</ele>
        <time>2021-10-31T21:19:50Z</time>
      </trkpt>
      <trkpt lat="43.737" lon="2.13794">
        <ele>229</ele>
        <time>2021-10-31T21:20:28Z</time>
      </trkpt>
      <trkpt lat="43.73898" lon="2.13802">
        <ele>218</ele>
        <time>2021-10-31T21:24:52Z</time>
      </trkpt>
      <trkpt lat="43.7417" lon="2.14018">
        <ele>251</ele>
        <time>2021-10-31T21:31:51Z</time>
      </trkpt>
      <trkpt lat="43.74043" lon="2.14192">
        <ele>237</ele>
        <time>2021-10-31T21:35:49Z</time>
      </trkpt>
      <trkpt lat="43.73955" lon="2.14245">
        <ele>231</ele>
        <time>2021-10-31T21:37:57Z</time>
      </trkpt>
      <trkpt lat="43.73928" lon="2.14379">
        <ele>229</ele>
        <time>2021-10-31T21:40:11Z</time>
      </trkpt>
      <trkpt lat="43.73933" lon="2.14487">
        <ele>231</ele>
        <time>2021-10-31T21:41:56Z</time>
      </trkpt>
      <trkpt lat="43.73861" lon="2.14509">
        <ele>232</ele>
        <time>2021-10-31T21:43:34Z</time>
      </trkpt>
      <trkpt lat="43.73778" lon="2.14512">
        <ele>231</ele>
        <time>2021-10-31T21:45:25Z</time>
      </trkpt>
      <trkpt lat="43.73621" lon="2.14572">
        <ele>225</ele>
        <time>2021-10-31T21:49:02Z</time>
      </trkpt>
      <trkpt lat="43.73696" lon="2.14888">
        <ele>234</ele>
        <time>2021-10-31T21:54:23Z</time>
      </trkpt>
      <trkpt lat="43.73682" lon="2.14903">
        <ele>233</ele>
        <time>2021-10-31T21:54:46Z</time>
      </trkpt>
      <trkpt lat="43.73662" lon="2.14937">
        <ele>234</ele>
        <time>2021-10-31T21:55:29Z</time>
      </trkpt>
      <trkpt lat="43.73526" lon="2.15071">
        <ele>232</ele>
        <time>2021-10-31T21:59:12Z</time>
      </trkpt>
      <trkpt lat="43.7343" lon="2.15171">
        <ele>232</ele>
        <time>2021-10-31T22:01:52Z</time>
      </trkpt>
      <trkpt lat="43.73354" lon="2.15338">
        <ele>232</ele>
        <time>2021-10-31T22:05:02Z</time>
      </trkpt>
      <trkpt lat="43.73298" lon="2.15444">
        <ele>232</ele>
        <time>2021-10-31T22:07:09Z</time>
      </trkpt>
      <trkpt lat="43.73203" lon="2.155">
        <ele>233</ele>
        <time>2021-10-31T22:09:27Z</time>
      </trkpt>
      <trkpt lat="43.731" lon="2.15565">
        <ele>235</ele>
        <time>2021-10-31T22:11:58Z</time>
      </trkpt>
      <trkpt lat="43.72992" lon="2.15659">
        <ele>235</ele>
        <time>2021-10-31T22:14:48Z</time>
      </trkpt>
      <trkpt lat="43.72764" lon="2.16034">
        <ele>237</ele>
        <time>2021-10-31T22:22:40Z</time>
      </trkpt>
      <trkpt lat="43.72632" lon="2.16242">
        <ele>236</ele>
        <time>2021-10-31T22:27:07Z</time>
      </trkpt>
      <trkpt lat="43.72537" lon="2.16323">
        <ele>236</ele>
        <time>2021-10-31T22:29:36Z</time>
      </trkpt>
      <trkpt lat="43.72288" lon="2.16438">
        <ele>234</ele>
        <time>2021-10-31T22:35:27Z</time>
      </trkpt>
      <trkpt lat="43.71933" lon="2.1661">
        <ele>236</ele>
        <time>2021-10-31T22:43:49Z</time>
      </trkpt>
      <trkpt lat="43.71569" lon="2.16816">
        <ele>236</ele>
        <time>2021-10-31T22:52:33Z</time>
      </trkpt>
      <trkpt lat="43.71527" lon="2.16844">
        <ele>236</ele>
        <time>2021-10-31T22:53:36Z</time>
      </trkpt>
      <trkpt lat="43.71352" lon="2.16934">
        <ele>236</ele>
        <time>2021-10-31T22:57:45Z</time>
      </trkpt>
      <trkpt lat="43.71233" lon="2.16987">
        <ele>235</ele>
        <time>2021-10-31T23:00:32Z</time>
      </trkpt>
      <trkpt lat="43.71127" lon="2.16969">
        <ele>236</ele>
        <time>2021-10-31T23:02:54Z</time>
      </trkpt>
      <trkpt lat="43.71075" lon="2.1695">
        <ele>237</ele>
        <time>2021-10-31T23:04:06Z</time>
      </trkpt>
      <trkpt lat="43.71001" lon="2.1687">
        <ele>233</ele>
        <time>2021-10-31T23:06:11Z</time>
      </trkpt>
      <trkpt lat="43.70814" lon="2.16613">
        <ele>230</ele>
        <time>2021-10-31T23:12:03Z</time>
      </trkpt>
      <trkpt lat="43.70704" lon="2.16446">
        <ele>236</ele>
        <time>2021-10-31T23:15:41Z</time>
      </trkpt>
      <trkpt lat="43.70686" lon="2.16276">
        <ele>235</ele>
        <time>2021-10-31T23:18:27Z</time>
      </trkpt>
      <trkpt lat="43.70719" lon="2.16124">
        <ele>235</ele>
        <time>2021-10-31T23:21:00Z</time>
      </trkpt>
      <trkpt lat="43.70753" lon="2.16025">
        <ele>235</ele>
        <time>2021-10-31T23:22:45Z</time>
      </trkpt>
      <trkpt lat="43.70799" lon="2.15873">
        <ele>233</ele>
        <time>2021-10-31T23:25:24Z</time>
      </trkpt>
      <trkpt lat="43.70795" lon="2.15715">
        <ele>231</ele>
        <time>2021-10-31T23:27:57Z</time>
      </trkpt>
      <trkpt lat="43.70756" lon="2.15601">
        <ele>231</ele>
        <time>2021-10-31T23:29:59Z</time>
      </trkpt>
      <trkpt lat="43.70657" lon="2.15415">
        <ele>234</ele>
        <time>2021-10-31T23:33:41Z</time>
      </trkpt>
      <trkpt lat="43.70578" lon="2.15223">
        <ele>233</ele>
        <time>2021-10-31T23:37:15Z</time>
      </trkpt>
      <trkpt lat="43.70465" lon="2.15032">
        <ele>219</ele>
        <time>2021-10-31T23:41:13Z</time>
      </trkpt>
      <trkpt lat="43.70368" lon="2.14914">
        <ele>217</ele>
        <time>2021-10-31T23:44:05Z</time>
      </trkpt>
      <trkpt lat="43.7024" lon="2.14775">
        <ele>223</ele>
        <time>2021-10-31T23:47:42Z</time>
      </trkpt>
      <trkpt lat="43.70262" lon="2.14735">
        <ele>225</ele>
        <time>2021-10-31T23:48:31Z</time>
      </trkpt>
      <trkpt lat="43.70358" lon="2.14583">
        <ele>232</ele>
        <time>2021-10-31T23:51:45Z</time>
      </trkpt>
      <trkpt lat="43.7043" lon="2.14459">
        <ele>238</ele>
        <time>2021-10-31T23:54:19Z</time>
      </trkpt>
      <trkpt lat="43.70528" lon="2.14276">
        <ele>247</ele>
        <time>2021-10-31T23:57:58Z</time>
      </trkpt>
      <trkpt lat="43.70545" lon="2.14195">
        <ele>252</ele>
        <time>2021-10-31T23:59:20Z</time>
      </trkpt>
      <trkpt lat="43.70552" lon="2.14148">
        <ele>258</ele>
        <time>2021-11-01T00:00:06Z</time>
      </trkpt>
      <trkpt lat="43.70529" lon="2.14056">
        <ele>273</ele>
        <time>2021-11-01T00:01:40Z</time>
      </trkpt>
      <trkpt lat="43.70454" lon="2.13995">
        <ele>279</ele>
        <time>2021-11-01T00:03:36Z</time>
      </trkpt>
      <trkpt lat="43.7047" lon="2.13978">
        <ele>284</ele>
        <time>2021-11-01T00:04:03Z</time>
      </trkpt>
      <trkpt lat="43.70538" lon="2.14006">
        <ele>283</ele>
        <time>2021-11-01T00:05:38Z</time>
      </trkpt>
      <trkpt lat="43.70583" lon="2.13981">
        <ele>288</ele>
        <time>2021-11-01T00:06:42Z</time>
      </trkpt>
      <trkpt lat="43.70661" lon="2.13978">
        <ele>282</ele>
        <time>2021-11-01T00:08:27Z</time>
      </trkpt>
      <trkpt lat="43.70642" lon="2.13866">
        <ele>296</ele>
        <time>2021-11-01T00:10:18Z</time>
      </trkpt>
      <trkpt lat="43.7059" lon="2.13758">
        <ele>294</ele>
        <time>2021-11-01T00:12:23Z</time>
      </trkpt>
      <trkpt lat="43.70534" lon="2.13656">
        <ele>285</ele>
        <time>2021-11-01T00:14:26Z</time>
      </trkpt>
      <trkpt lat="43.70498" lon="2.13607">
        <ele>279</ele>
        <time>2021-11-01T00:15:34Z</time>
      </trkpt>
      <trkpt lat="43.70435" lon="2.13613">
        <ele>276</ele>
        <time>2021-11-01T00:16:58Z</time>
      </trkpt>
      <trkpt lat="43.70415" lon="2.13588">
        <ele>271</ele>
        <time>2021-11-01T00:17:34Z</time>
      </trkpt>
      <trkpt lat="43.70379" lon="2.13567">
        <ele>264</ele>
        <time>2021-11-01T00:18:26Z</time>
      </trkpt>
      <trkpt lat="43.70347" lon="2.13499">
        <ele>256</ele>
        <time>2021-11-01T00:19:44Z</time>
      </trkpt>
      <trkpt lat="43.70349" lon="2.13319">
        <ele>243</ele>
        <time>2021-11-01T00:22:38Z</time>
      </trkpt>
    </trkseg>
  </trk>
</gpx>